sensor_id;sensor_type;location;lat;lon;timestamp;temperature;humidity
57088;DHT22;42965;52.846;6.614;2022-09-14T00:01:08;12.50;99.90
57088;DHT22;42965;52.846;6.614;2022-09-14T00:03:35;12.50;99.90
57088;DHT22;42965;52.846;6.614;2022-09-14T00:06:06;12.50;99.90
57088;DHT22;42965;52.846;6.614;2022-09-14T00:08:33;12.50;99.90
57088;DHT22;42965;52.846;6.614;2022-09-14T00:11:06;12.50;99.90
57088;DHT22;42965;52.846;6.614;2022-09-14T00:13:33;12.50;99.90
57088;DHT22;42965;52.846;6.614;2022-09-14T00:16:05;12.50;99.90
57088;DHT22;42965;52.846;6.614;2022-09-14T00:18:35;12.50;99.90
57088;DHT22;42965;52.846;6.614;2022-09-14T00:21:03;12.40;99.90
57088;DHT22;42965;52.846;6.614;2022-09-14T00:23:29;12.40;99.90
57088;DHT22;42965;52.846;6.614;2022-09-14T00:26:02;12.40;99.90
57088;DHT22;42965;52.846;6.614;2022-09-14T00:28:28;12.40;99.90
57088;DHT22;42965;52.846;6.614;2022-09-14T00:30:54;12.40;99.90
57088;DHT22;42965;52.846;6.614;2022-09-14T00:33:20;12.40;99.90
57088;DHT22;42965;52.846;6.614;2022-09-14T00:35:46;12.40;99.90
57088;DHT22;42965;52.846;6.614;2022-09-14T00:38:12;12.50;99.90
57088;DHT22;42965;52.846;6.614;2022-09-14T00:40:38;12.60;99.90
57088;DHT22;42965;52.846;6.614;2022-09-14T00:43:11;12.50;99.90
57088;DHT22;42965;52.846;6.614;2022-09-14T00:45:38;12.50;99.90
57088;DHT22;42965;52.846;6.614;2022-09-14T00:48:05;12.60;99.90
57088;DHT22;42965;52.846;6.614;2022-09-14T00:50:31;12.60;99.90
57088;DHT22;42965;52.846;6.614;2022-09-14T00:52:57;12.60;99.90
57088;DHT22;42965;52.846;6.614;2022-09-14T00:55:24;12.70;99.90
57088;DHT22;42965;52.846;6.614;2022-09-14T00:57:52;12.70;99.90
57088;DHT22;42965;52.846;6.614;2022-09-14T01:00:24;12.80;99.90
57088;DHT22;42965;52.846;6.614;2022-09-14T01:02:50;12.80;99.90
57088;DHT22;42965;52.846;6.614;2022-09-14T01:05:17;12.80;99.90
57088;DHT22;42965;52.846;6.614;2022-09-14T01:10:43;12.70;99.90
57088;DHT22;42965;52.846;6.614;2022-09-14T01:13:36;12.70;99.90
57088;DHT22;42965;52.846;6.614;2022-09-14T01:18:58;12.60;99.90
57088;DHT22;42965;52.846;6.614;2022-09-14T01:21:27;12.50;99.90
57088;DHT22;42965;52.846;6.614;2022-09-14T01:24:19;12.50;99.90
57088;DHT22;42965;52.846;6.614;2022-09-14T01:29:41;12.50;99.90
57088;DHT22;42965;52.846;6.614;2022-09-14T01:32:38;12.50;99.90
57088;DHT22;42965;52.846;6.614;2022-09-14T01:37:49;12.50;99.90
57088;DHT22;42965;52.846;6.614;2022-09-14T01:40:27;12.50;99.90
57088;DHT22;42965;52.846;6.614;2022-09-14T01:43:00;12.50;99.90
57088;DHT22;42965;52.846;6.614;2022-09-14T01:45:28;12.50;99.90
57088;DHT22;42965;52.846;6.614;2022-09-14T01:48:04;12.50;99.90
57088;DHT22;42965;52.846;6.614;2022-09-14T01:50:38;12.60;99.90
57088;DHT22;42965;52.846;6.614;2022-09-14T01:53:10;12.60;99.90
57088;DHT22;42965;52.846;6.614;2022-09-14T01:55:57;12.50;99.90
57088;DHT22;42965;52.846;6.614;2022-09-14T01:58:32;12.50;99.90
57088;DHT22;42965;52.846;6.614;2022-09-14T02:01:02;12.50;99.90
57088;DHT22;42965;52.846;6.614;2022-09-14T02:03:33;12.50;99.90
57088;DHT22;42965;52.846;6.614;2022-09-14T02:06:24;12.50;99.90
57088;DHT22;42965;52.846;6.614;2022-09-14T02:08:51;12.50;99.90
57088;DHT22;42965;52.846;6.614;2022-09-14T02:11:17;12.40;99.90
57088;DHT22;42965;52.846;6.614;2022-09-14T02:13:43;12.40;99.90
57088;DHT22;42965;52.846;6.614;2022-09-14T02:16:09;12.40;99.90
57088;DHT22;42965;52.846;6.614;2022-09-14T02:18:37;12.40;99.90
57088;DHT22;42965;52.846;6.614;2022-09-14T02:21:15;12.40;99.90
57088;DHT22;42965;52.846;6.614;2022-09-14T02:23:42;12.30;99.90
57088;DHT22;42965;52.846;6.614;2022-09-14T02:26:09;12.20;99.90
57088;DHT22;42965;52.846;6.614;2022-09-14T02:28:36;12.20;99.90
57088;DHT22;42965;52.846;6.614;2022-09-14T02:37:17;12.10;99.90
57088;DHT22;42965;52.846;6.614;2022-09-14T02:56:18;12.10;99.90
57088;DHT22;42965;52.846;6.614;2022-09-14T02:58:47;12.10;99.90
57088;DHT22;42965;52.846;6.614;2022-09-14T03:01:17;12.10;99.90
57088;DHT22;42965;52.846;6.614;2022-09-14T03:03:43;12.10;99.90
57088;DHT22;42965;52.846;6.614;2022-09-14T03:06:10;12.10;99.90
57088;DHT22;42965;52.846;6.614;2022-09-14T03:08:36;12.20;99.90
57088;DHT22;42965;52.846;6.614;2022-09-14T03:11:02;12.20;99.90
57088;DHT22;42965;52.846;6.614;2022-09-14T03:13:29;12.30;99.90
57088;DHT22;42965;52.846;6.614;2022-09-14T03:15:55;12.30;99.90
57088;DHT22;42965;52.846;6.614;2022-09-14T03:18:21;12.30;99.90
57088;DHT22;42965;52.846;6.614;2022-09-14T03:20:47;12.40;99.90
57088;DHT22;42965;52.846;6.614;2022-09-14T03:23:13;12.40;99.90
57088;DHT22;42965;52.846;6.614;2022-09-14T03:25:42;12.40;99.90
57088;DHT22;42965;52.846;6.614;2022-09-14T03:28:09;12.50;99.90
57088;DHT22;42965;52.846;6.614;2022-09-14T03:30:36;12.50;99.90
57088;DHT22;42965;52.846;6.614;2022-09-14T03:33:03;12.60;99.90
57088;DHT22;42965;52.846;6.614;2022-09-14T03:35:30;12.70;99.90
57088;DHT22;42965;52.846;6.614;2022-09-14T03:37:57;12.70;99.90
57088;DHT22;42965;52.846;6.614;2022-09-14T03:40:24;12.70;99.90
57088;DHT22;42965;52.846;6.614;2022-09-14T03:42:51;12.70;99.90
57088;DHT22;42965;52.846;6.614;2022-09-14T03:45:18;12.70;99.90
57088;DHT22;42965;52.846;6.614;2022-09-14T03:47:45;12.70;99.90
57088;DHT22;42965;52.846;6.614;2022-09-14T03:50:12;12.70;99.90
57088;DHT22;42965;52.846;6.614;2022-09-14T03:52:39;12.80;99.90
57088;DHT22;42965;52.846;6.614;2022-09-14T03:55:07;12.80;99.90
57088;DHT22;42965;52.846;6.614;2022-09-14T03:57:34;12.80;99.90
57088;DHT22;42965;52.846;6.614;2022-09-14T04:00:01;12.80;99.90
57088;DHT22;42965;52.846;6.614;2022-09-14T04:02:28;12.80;99.90
57088;DHT22;42965;52.846;6.614;2022-09-14T04:04:54;12.80;99.90
57088;DHT22;42965;52.846;6.614;2022-09-14T04:07:20;12.90;99.90
57088;DHT22;42965;52.846;6.614;2022-09-14T04:09:46;12.90;99.90
57088;DHT22;42965;52.846;6.614;2022-09-14T04:12:12;12.90;99.90
57088;DHT22;42965;52.846;6.614;2022-09-14T04:14:38;13.00;99.90
57088;DHT22;42965;52.846;6.614;2022-09-14T04:17:05;12.90;99.90
57088;DHT22;42965;52.846;6.614;2022-09-14T04:19:31;13.00;99.90
57088;DHT22;42965;52.846;6.614;2022-09-14T04:22:03;13.00;99.90
57088;DHT22;42965;52.846;6.614;2022-09-14T04:24:29;13.00;99.90
57088;DHT22;42965;52.846;6.614;2022-09-14T04:26:55;13.00;99.90
57088;DHT22;42965;52.846;6.614;2022-09-14T04:29:21;13.00;99.90
57088;DHT22;42965;52.846;6.614;2022-09-14T04:31:47;13.00;99.90
57088;DHT22;42965;52.846;6.614;2022-09-14T04:34:13;13.00;99.90
57088;DHT22;42965;52.846;6.614;2022-09-14T04:36:40;13.00;99.90
57088;DHT22;42965;52.846;6.614;2022-09-14T04:39:08;13.00;99.90
57088;DHT22;42965;52.846;6.614;2022-09-14T04:41:35;13.00;99.90
57088;DHT22;42965;52.846;6.614;2022-09-14T04:44:01;13.10;99.90
57088;DHT22;42965;52.846;6.614;2022-09-14T04:46:30;13.10;99.90
57088;DHT22;42965;52.846;6.614;2022-09-14T04:48:56;13.10;99.90
57088;DHT22;42965;52.846;6.614;2022-09-14T04:51:25;13.10;99.90
57088;DHT22;42965;52.846;6.614;2022-09-14T04:53:53;13.10;99.90
57088;DHT22;42965;52.846;6.614;2022-09-14T04:56:22;13.10;99.90
57088;DHT22;42965;52.846;6.614;2022-09-14T04:58:54;13.10;99.90
57088;DHT22;42965;52.846;6.614;2022-09-14T05:01:21;13.10;99.90
57088;DHT22;42965;52.846;6.614;2022-09-14T05:03:48;13.10;99.90
57088;DHT22;42965;52.846;6.614;2022-09-14T05:06:18;13.10;99.90
57088;DHT22;42965;52.846;6.614;2022-09-14T05:08:45;13.10;99.90
57088;DHT22;42965;52.846;6.614;2022-09-14T05:11:14;13.10;99.90
57088;DHT22;42965;52.846;6.614;2022-09-14T05:13:44;13.20;99.90
57088;DHT22;42965;52.846;6.614;2022-09-14T05:16:16;13.20;99.90
57088;DHT22;42965;52.846;6.614;2022-09-14T05:18:43;13.10;99.90
57088;DHT22;42965;52.846;6.614;2022-09-14T05:21:14;13.20;99.90
57088;DHT22;42965;52.846;6.614;2022-09-14T05:23:41;13.20;99.90
57088;DHT22;42965;52.846;6.614;2022-09-14T05:26:07;13.10;99.90
57088;DHT22;42965;52.846;6.614;2022-09-14T05:28:34;13.20;99.90
57088;DHT22;42965;52.846;6.614;2022-09-14T05:31:08;13.10;99.90
57088;DHT22;42965;52.846;6.614;2022-09-14T05:33:35;13.20;99.90
57088;DHT22;42965;52.846;6.614;2022-09-14T05:36:03;13.20;99.90
57088;DHT22;42965;52.846;6.614;2022-09-14T05:38:31;13.10;99.90
57088;DHT22;42965;52.846;6.614;2022-09-14T05:40:57;13.20;99.90
57088;DHT22;42965;52.846;6.614;2022-09-14T05:43:25;13.20;99.90
57088;DHT22;42965;52.846;6.614;2022-09-14T05:45:52;13.30;99.90
57088;DHT22;42965;52.846;6.614;2022-09-14T05:48:18;13.30;99.90
57088;DHT22;42965;52.846;6.614;2022-09-14T05:50:44;13.30;99.90
57088;DHT22;42965;52.846;6.614;2022-09-14T05:53:10;13.30;99.90
57088;DHT22;42965;52.846;6.614;2022-09-14T05:55:36;13.30;99.90
57088;DHT22;42965;52.846;6.614;2022-09-14T05:58:02;13.40;99.90
57088;DHT22;42965;52.846;6.614;2022-09-14T06:00:30;13.40;99.90
57088;DHT22;42965;52.846;6.614;2022-09-14T06:02:56;13.40;99.90
57088;DHT22;42965;52.846;6.614;2022-09-14T06:05:22;13.50;99.90
57088;DHT22;42965;52.846;6.614;2022-09-14T06:07:51;13.50;99.90
57088;DHT22;42965;52.846;6.614;2022-09-14T06:10:18;13.50;99.90
57088;DHT22;42965;52.846;6.614;2022-09-14T06:12:45;13.60;99.90
57088;DHT22;42965;52.846;6.614;2022-09-14T06:15:11;13.60;99.90
57088;DHT22;42965;52.846;6.614;2022-09-14T06:17:38;13.60;99.90
57088;DHT22;42965;52.846;6.614;2022-09-14T06:20:05;13.70;99.90
57088;DHT22;42965;52.846;6.614;2022-09-14T06:22:34;13.70;99.90
57088;DHT22;42965;52.846;6.614;2022-09-14T06:25:00;13.80;99.90
57088;DHT22;42965;52.846;6.614;2022-09-14T06:27:26;13.80;99.90
57088;DHT22;42965;52.846;6.614;2022-09-14T06:29:52;13.80;99.90
57088;DHT22;42965;52.846;6.614;2022-09-14T06:32:20;13.90;99.90
57088;DHT22;42965;52.846;6.614;2022-09-14T06:34:48;13.90;99.90
57088;DHT22;42965;52.846;6.614;2022-09-14T06:37:14;13.90;99.90
57088;DHT22;42965;52.846;6.614;2022-09-14T06:39:40;14.00;99.90
57088;DHT22;42965;52.846;6.614;2022-09-14T06:42:07;14.00;99.90
57088;DHT22;42965;52.846;6.614;2022-09-14T06:44:34;14.10;99.90
57088;DHT22;42965;52.846;6.614;2022-09-14T06:47:00;14.10;99.90
57088;DHT22;42965;52.846;6.614;2022-09-14T06:49:27;14.30;99.90
57088;DHT22;42965;52.846;6.614;2022-09-14T06:51:53;14.30;99.90
57088;DHT22;42965;52.846;6.614;2022-09-14T06:54:21;14.40;99.90
57088;DHT22;42965;52.846;6.614;2022-09-14T06:56:48;14.40;99.90
57088;DHT22;42965;52.846;6.614;2022-09-14T06:59:15;14.50;99.90
57088;DHT22;42965;52.846;6.614;2022-09-14T07:01:42;14.60;99.90
57088;DHT22;42965;52.846;6.614;2022-09-14T07:04:12;14.60;99.90
57088;DHT22;42965;52.846;6.614;2022-09-14T07:06:41;14.70;99.90
57088;DHT22;42965;52.846;6.614;2022-09-14T07:09:08;14.70;99.90
57088;DHT22;42965;52.846;6.614;2022-09-14T07:11:35;14.70;99.90
57088;DHT22;42965;52.846;6.614;2022-09-14T07:14:02;14.80;99.90
57088;DHT22;42965;52.846;6.614;2022-09-14T07:16:29;14.90;99.90
57088;DHT22;42965;52.846;6.614;2022-09-14T07:18:57;15.00;99.90
57088;DHT22;42965;52.846;6.614;2022-09-14T07:21:24;15.10;99.90
57088;DHT22;42965;52.846;6.614;2022-09-14T07:23:51;15.20;99.90
57088;DHT22;42965;52.846;6.614;2022-09-14T07:26:19;15.40;99.90
57088;DHT22;42965;52.846;6.614;2022-09-14T07:28:49;15.50;99.90
57088;DHT22;42965;52.846;6.614;2022-09-14T07:31:22;15.50;99.90
57088;DHT22;42965;52.846;6.614;2022-09-14T07:34:00;15.60;99.90
57088;DHT22;42965;52.846;6.614;2022-09-14T07:36:28;15.70;99.90
57088;DHT22;42965;52.846;6.614;2022-09-14T07:38:54;15.80;99.90
57088;DHT22;42965;52.846;6.614;2022-09-14T07:41:24;15.90;99.90
57088;DHT22;42965;52.846;6.614;2022-09-14T07:43:52;15.90;99.90
57088;DHT22;42965;52.846;6.614;2022-09-14T07:46:19;16.00;99.90
57088;DHT22;42965;52.846;6.614;2022-09-14T07:48:46;16.10;99.90
57088;DHT22;42965;52.846;6.614;2022-09-14T07:51:45;16.20;99.90
57088;DHT22;42965;52.846;6.614;2022-09-14T07:54:13;16.20;99.90
57088;DHT22;42965;52.846;6.614;2022-09-14T07:56:39;16.30;99.90
57088;DHT22;42965;52.846;6.614;2022-09-14T07:59:06;16.40;99.90
57088;DHT22;42965;52.846;6.614;2022-09-14T08:01:32;16.50;99.90
57088;DHT22;42965;52.846;6.614;2022-09-14T08:04:00;16.60;99.90
57088;DHT22;42965;52.846;6.614;2022-09-14T08:06:27;16.70;99.90
57088;DHT22;42965;52.846;6.614;2022-09-14T08:08:54;16.80;99.90
57088;DHT22;42965;52.846;6.614;2022-09-14T08:11:28;16.90;99.90
57088;DHT22;42965;52.846;6.614;2022-09-14T08:13:59;17.10;99.90
57088;DHT22;42965;52.846;6.614;2022-09-14T08:16:28;17.20;99.90
57088;DHT22;42965;52.846;6.614;2022-09-14T08:18:57;17.30;99.90
57088;DHT22;42965;52.846;6.614;2022-09-14T08:21:24;17.50;99.90
57088;DHT22;42965;52.846;6.614;2022-09-14T08:23:50;17.50;99.90
57088;DHT22;42965;52.846;6.614;2022-09-14T08:26:19;17.70;99.90
57088;DHT22;42965;52.846;6.614;2022-09-14T08:28:46;17.80;99.90
57088;DHT22;42965;52.846;6.614;2022-09-14T08:31:21;17.90;99.90
57088;DHT22;42965;52.846;6.614;2022-09-14T08:33:56;18.10;99.90
57088;DHT22;42965;52.846;6.614;2022-09-14T08:36:23;18.40;99.90
57088;DHT22;42965;52.846;6.614;2022-09-14T08:38:49;18.50;99.90
57088;DHT22;42965;52.846;6.614;2022-09-14T08:44:10;18.80;99.90
57088;DHT22;42965;52.846;6.614;2022-09-14T08:46:41;18.90;99.90
57088;DHT22;42965;52.846;6.614;2022-09-14T08:49:17;19.10;99.90
57088;DHT22;42965;52.846;6.614;2022-09-14T08:51:45;19.20;99.90
57088;DHT22;42965;52.846;6.614;2022-09-14T08:54:11;19.20;99.90
57088;DHT22;42965;52.846;6.614;2022-09-14T08:56:40;19.30;99.90
57088;DHT22;42965;52.846;6.614;2022-09-14T09:00:03;19.30;99.90
57088;DHT22;42965;52.846;6.614;2022-09-14T09:02:39;19.30;99.90
57088;DHT22;42965;52.846;6.614;2022-09-14T09:08:00;19.00;99.90
57088;DHT22;42965;52.846;6.614;2022-09-14T09:10:29;19.00;99.90
57088;DHT22;42965;52.846;6.614;2022-09-14T09:12:59;19.00;99.90
57088;DHT22;42965;52.846;6.614;2022-09-14T09:15:42;19.00;99.90
57088;DHT22;42965;52.846;6.614;2022-09-14T09:18:45;19.10;99.90
57088;DHT22;42965;52.846;6.614;2022-09-14T09:21:14;19.00;99.90
57088;DHT22;42965;52.846;6.614;2022-09-14T09:23:41;19.10;99.90
57088;DHT22;42965;52.846;6.614;2022-09-14T09:28:45;19.40;99.90
57088;DHT22;42965;52.846;6.614;2022-09-14T09:31:13;19.50;99.90
57088;DHT22;42965;52.846;6.614;2022-09-14T09:34:06;19.70;99.90
57088;DHT22;42965;52.846;6.614;2022-09-14T09:36:35;19.90;99.90
57088;DHT22;42965;52.846;6.614;2022-09-14T09:39:04;20.40;99.90
57088;DHT22;42965;52.846;6.614;2022-09-14T09:42:35;20.70;99.90
57088;DHT22;42965;52.846;6.614;2022-09-14T09:45:00;20.90;99.90
57088;DHT22;42965;52.846;6.614;2022-09-14T09:47:36;22.00;99.90
57088;DHT22;42965;52.846;6.614;2022-09-14T09:50:06;22.60;99.90
57088;DHT22;42965;52.846;6.614;2022-09-14T09:52:53;23.10;99.90
57088;DHT22;42965;52.846;6.614;2022-09-14T09:55:21;23.50;99.90
57088;DHT22;42965;52.846;6.614;2022-09-14T10:01:53;23.50;96.10
57088;DHT22;42965;52.846;6.614;2022-09-14T10:04:25;23.00;99.90
57088;DHT22;42965;52.846;6.614;2022-09-14T10:06:55;23.00;99.90
57088;DHT22;42965;52.846;6.614;2022-09-14T10:09:24;23.00;99.90
57088;DHT22;42965;52.846;6.614;2022-09-14T10:12:01;22.90;99.90
57088;DHT22;42965;52.846;6.614;2022-09-14T10:14:30;22.90;99.90
57088;DHT22;42965;52.846;6.614;2022-09-14T10:17:23;22.60;99.90
57088;DHT22;42965;52.846;6.614;2022-09-14T10:19:50;23.10;99.90
57088;DHT22;42965;52.846;6.614;2022-09-14T10:25:20;24.20;99.90
57088;DHT22;42965;52.846;6.614;2022-09-14T10:30:31;25.00;95.20
57088;DHT22;42965;52.846;6.614;2022-09-14T10:33:02;25.20;91.40
57088;DHT22;42965;52.846;6.614;2022-09-14T10:40:43;24.20;95.40
57088;DHT22;42965;52.846;6.614;2022-09-14T10:43:38;23.40;96.10
57088;DHT22;42965;52.846;6.614;2022-09-14T10:46:11;23.20;97.80
57088;DHT22;42965;52.846;6.614;2022-09-14T10:52:02;23.10;97.60
57088;DHT22;42965;52.846;6.614;2022-09-14T10:55:14;22.70;99.90
57088;DHT22;42965;52.846;6.614;2022-09-14T10:58:29;22.30;99.90
57088;DHT22;42965;52.846;6.614;2022-09-14T11:03:42;22.00;99.90
57088;DHT22;42965;52.846;6.614;2022-09-14T11:06:26;21.80;99.90
57088;DHT22;42965;52.846;6.614;2022-09-14T11:09:02;21.70;99.90
57088;DHT22;42965;52.846;6.614;2022-09-14T11:11:51;21.80;99.90
57088;DHT22;42965;52.846;6.614;2022-09-14T11:19:52;21.80;99.90
57088;DHT22;42965;52.846;6.614;2022-09-14T11:22:43;22.10;99.90
57088;DHT22;42965;52.846;6.614;2022-09-14T11:25:32;22.80;99.90
57088;DHT22;42965;52.846;6.614;2022-09-14T11:28:30;23.50;99.90
57088;DHT22;42965;52.846;6.614;2022-09-14T11:31:10;23.70;97.20
57088;DHT22;42965;52.846;6.614;2022-09-14T11:33:46;23.90;97.00
57088;DHT22;42965;52.846;6.614;2022-09-14T11:36:24;24.40;96.30
57088;DHT22;42965;52.846;6.614;2022-09-14T11:39:04;25.30;92.50
57088;DHT22;42965;52.846;6.614;2022-09-14T11:41:40;25.90;89.40
57088;DHT22;42965;52.846;6.614;2022-09-14T11:44:30;25.80;81.70
57088;DHT22;42965;52.846;6.614;2022-09-14T11:47:02;25.50;86.00
57088;DHT22;42965;52.846;6.614;2022-09-14T11:52:19;25.10;81.90
57088;DHT22;42965;52.846;6.614;2022-09-14T11:54:47;24.90;78.50
57088;DHT22;42965;52.846;6.614;2022-09-14T11:57:19;24.70;83.20
57088;DHT22;42965;52.846;6.614;2022-09-14T11:59:48;24.80;76.70
57088;DHT22;42965;52.846;6.614;2022-09-14T12:12:44;26.40;70.80
57088;DHT22;42965;52.846;6.614;2022-09-14T12:18:22;26.50;67.70
57088;DHT22;42965;52.846;6.614;2022-09-14T12:36:06;26.00;62.90
57088;DHT22;42965;52.846;6.614;2022-09-14T12:54:19;23.70;75.70
57088;DHT22;42965;52.846;6.614;2022-09-14T12:59:37;23.30;81.30
57088;DHT22;42965;52.846;6.614;2022-09-14T13:05:19;22.70;85.10
57088;DHT22;42965;52.846;6.614;2022-09-14T13:07:45;22.80;87.50
57088;DHT22;42965;52.846;6.614;2022-09-14T13:10:22;22.80;88.10
57088;DHT22;42965;52.846;6.614;2022-09-14T13:12:49;22.90;91.00
57088;DHT22;42965;52.846;6.614;2022-09-14T13:15:26;23.00;90.20
57088;DHT22;42965;52.846;6.614;2022-09-14T13:17:57;23.70;87.00
57088;DHT22;42965;52.846;6.614;2022-09-14T13:20:23;24.70;81.80
57088;DHT22;42965;52.846;6.614;2022-09-14T13:22:49;26.20;75.40
57088;DHT22;42965;52.846;6.614;2022-09-14T13:25:45;26.60;70.10
57088;DHT22;42965;52.846;6.614;2022-09-14T13:28:16;26.30;67.30
57088;DHT22;42965;52.846;6.614;2022-09-14T13:30:56;25.90;68.60
57088;DHT22;42965;52.846;6.614;2022-09-14T13:33:23;25.20;68.90
57088;DHT22;42965;52.846;6.614;2022-09-14T13:35:55;24.80;70.80
57088;DHT22;42965;52.846;6.614;2022-09-14T13:38:24;24.40;71.50
57088;DHT22;42965;52.846;6.614;2022-09-14T13:40:53;24.30;74.20
57088;DHT22;42965;52.846;6.614;2022-09-14T13:43:21;24.10;77.60
57088;DHT22;42965;52.846;6.614;2022-09-14T13:45:49;23.70;80.00
57088;DHT22;42965;52.846;6.614;2022-09-14T13:48:16;23.60;82.50
57088;DHT22;42965;52.846;6.614;2022-09-14T13:50:46;23.60;83.40
57088;DHT22;42965;52.846;6.614;2022-09-14T13:53:45;23.60;83.20
57088;DHT22;42965;52.846;6.614;2022-09-14T14:01:37;23.70;80.00
57088;DHT22;42965;52.846;6.614;2022-09-14T14:04:04;23.80;83.20
57088;DHT22;42965;52.846;6.614;2022-09-14T14:06:33;23.50;85.20
57088;DHT22;42965;52.846;6.614;2022-09-14T14:09:05;23.50;85.00
57088;DHT22;42965;52.846;6.614;2022-09-14T14:11:44;23.50;84.60
57088;DHT22;42965;52.846;6.614;2022-09-14T14:17:20;23.50;83.60
57088;DHT22;42965;52.846;6.614;2022-09-14T14:19:48;23.50;86.80
57088;DHT22;42965;52.846;6.614;2022-09-14T14:22:16;23.40;86.60
57088;DHT22;42965;52.846;6.614;2022-09-14T14:24:44;23.00;84.80
57088;DHT22;42965;52.846;6.614;2022-09-14T14:30:03;22.70;88.10
57088;DHT22;42965;52.846;6.614;2022-09-14T14:32:29;22.60;89.10
57088;DHT22;42965;52.846;6.614;2022-09-14T14:35:02;22.60;90.30
57088;DHT22;42965;52.846;6.614;2022-09-14T14:37:28;22.40;90.30
57088;DHT22;42965;52.846;6.614;2022-09-14T14:39:54;22.50;90.70
57088;DHT22;42965;52.846;6.614;2022-09-14T14:42:20;22.40;90.90
57088;DHT22;42965;52.846;6.614;2022-09-14T14:44:46;22.30;90.90
57088;DHT22;42965;52.846;6.614;2022-09-14T14:47:13;22.40;90.90
57088;DHT22;42965;52.846;6.614;2022-09-14T14:49:40;22.20;91.90
57088;DHT22;42965;52.846;6.614;2022-09-14T14:52:08;22.10;92.70
57088;DHT22;42965;52.846;6.614;2022-09-14T14:54:34;22.10;93.50
57088;DHT22;42965;52.846;6.614;2022-09-14T14:57:00;22.20;93.50
57088;DHT22;42965;52.846;6.614;2022-09-14T14:59:28;22.60;92.90
57088;DHT22;42965;52.846;6.614;2022-09-14T15:01:55;23.40;92.20
57088;DHT22;42965;52.846;6.614;2022-09-14T15:04:21;24.10;88.40
57088;DHT22;42965;52.846;6.614;2022-09-14T15:06:48;24.40;84.50
57088;DHT22;42965;52.846;6.614;2022-09-14T15:09:18;24.80;81.00
57088;DHT22;42965;52.846;6.614;2022-09-14T15:11:45;25.10;77.80
57088;DHT22;42965;52.846;6.614;2022-09-14T15:14:17;25.30;76.90
57088;DHT22;42965;52.846;6.614;2022-09-14T15:16:45;25.50;74.30
57088;DHT22;42965;52.846;6.614;2022-09-14T15:19:11;25.20;75.20
57088;DHT22;42965;52.846;6.614;2022-09-14T15:21:38;25.00;73.50
57088;DHT22;42965;52.846;6.614;2022-09-14T15:24:05;24.40;75.60
57088;DHT22;42965;52.846;6.614;2022-09-14T15:26:31;24.00;78.60
57088;DHT22;42965;52.846;6.614;2022-09-14T15:28:58;23.60;79.90
57088;DHT22;42965;52.846;6.614;2022-09-14T15:31:24;23.40;79.80
57088;DHT22;42965;52.846;6.614;2022-09-14T15:33:50;23.00;83.20
57088;DHT22;42965;52.846;6.614;2022-09-14T15:36:43;23.00;84.20
57088;DHT22;42965;52.846;6.614;2022-09-14T15:39:18;22.70;84.90
57088;DHT22;42965;52.846;6.614;2022-09-14T15:41:44;22.70;88.50
57088;DHT22;42965;52.846;6.614;2022-09-14T15:44:11;22.60;91.00
57088;DHT22;42965;52.846;6.614;2022-09-14T15:46:38;22.40;92.20
57088;DHT22;42965;52.846;6.614;2022-09-14T15:49:09;22.40;91.60
57088;DHT22;42965;52.846;6.614;2022-09-14T15:51:36;22.30;92.60
57088;DHT22;42965;52.846;6.614;2022-09-14T15:54:03;22.10;94.70
57088;DHT22;42965;52.846;6.614;2022-09-14T15:56:29;22.00;94.50
57088;DHT22;42965;52.846;6.614;2022-09-14T15:58:59;21.90;94.60
57088;DHT22;42965;52.846;6.614;2022-09-14T16:01:27;21.70;96.00
57088;DHT22;42965;52.846;6.614;2022-09-14T16:04:04;21.60;97.40
57088;DHT22;42965;52.846;6.614;2022-09-14T16:06:31;21.50;98.90
57088;DHT22;42965;52.846;6.614;2022-09-14T16:08:59;21.40;98.90
57088;DHT22;42965;52.846;6.614;2022-09-14T16:11:26;21.30;99.90
57088;DHT22;42965;52.846;6.614;2022-09-14T16:13:52;21.30;99.90
57088;DHT22;42965;52.846;6.614;2022-09-14T16:16:19;21.10;99.90
57088;DHT22;42965;52.846;6.614;2022-09-14T16:18:46;21.10;99.90
57088;DHT22;42965;52.846;6.614;2022-09-14T16:21:20;21.00;99.90
57088;DHT22;42965;52.846;6.614;2022-09-14T16:23:50;20.90;99.90
57088;DHT22;42965;52.846;6.614;2022-09-14T16:26:22;20.80;99.90
57088;DHT22;42965;52.846;6.614;2022-09-14T16:28:49;20.70;99.90
57088;DHT22;42965;52.846;6.614;2022-09-14T16:31:22;20.60;99.90
57088;DHT22;42965;52.846;6.614;2022-09-14T16:33:51;20.50;99.90
57088;DHT22;42965;52.846;6.614;2022-09-14T16:36:20;20.40;99.90
57088;DHT22;42965;52.846;6.614;2022-09-14T16:38:46;20.40;99.90
57088;DHT22;42965;52.846;6.614;2022-09-14T16:41:13;20.30;99.90
57088;DHT22;42965;52.846;6.614;2022-09-14T16:43:40;20.20;99.90
57088;DHT22;42965;52.846;6.614;2022-09-14T16:46:08;20.10;99.90
57088;DHT22;42965;52.846;6.614;2022-09-14T16:48:37;20.10;99.90
57088;DHT22;42965;52.846;6.614;2022-09-14T16:51:04;20.10;99.90
57088;DHT22;42965;52.846;6.614;2022-09-14T16:53:36;20.00;99.90
57088;DHT22;42965;52.846;6.614;2022-09-14T16:56:07;19.90;99.90
57088;DHT22;42965;52.846;6.614;2022-09-14T16:58:35;19.90;99.90
57088;DHT22;42965;52.846;6.614;2022-09-14T17:03:35;19.70;99.90
57088;DHT22;42965;52.846;6.614;2022-09-14T17:06:03;19.70;99.90
57088;DHT22;42965;52.846;6.614;2022-09-14T17:08:30;19.70;99.90
57088;DHT22;42965;52.846;6.614;2022-09-14T17:10:57;19.60;99.90
57088;DHT22;42965;52.846;6.614;2022-09-14T17:13:25;19.50;99.90
57088;DHT22;42965;52.846;6.614;2022-09-14T17:15:52;19.40;99.90
57088;DHT22;42965;52.846;6.614;2022-09-14T17:18:18;19.40;99.90
57088;DHT22;42965;52.846;6.614;2022-09-14T17:21:05;19.30;99.90
57088;DHT22;42965;52.846;6.614;2022-09-14T17:23:32;19.20;99.90
57088;DHT22;42965;52.846;6.614;2022-09-14T17:25:59;19.10;99.90
57088;DHT22;42965;52.846;6.614;2022-09-14T17:28:27;19.10;99.90
57088;DHT22;42965;52.846;6.614;2022-09-14T17:30:55;19.00;99.90
57088;DHT22;42965;52.846;6.614;2022-09-14T17:33:21;18.90;99.90
57088;DHT22;42965;52.846;6.614;2022-09-14T17:35:51;18.80;99.90
57088;DHT22;42965;52.846;6.614;2022-09-14T17:38:17;18.80;99.90
57088;DHT22;42965;52.846;6.614;2022-09-14T17:40:44;18.70;99.90
57088;DHT22;42965;52.846;6.614;2022-09-14T17:43:10;18.70;99.90
57088;DHT22;42965;52.846;6.614;2022-09-14T17:45:38;18.60;99.90
57088;DHT22;42965;52.846;6.614;2022-09-14T17:48:05;18.50;99.90
57088;DHT22;42965;52.846;6.614;2022-09-14T17:50:32;18.40;99.90
57088;DHT22;42965;52.846;6.614;2022-09-14T17:52:58;18.40;99.90
57088;DHT22;42965;52.846;6.614;2022-09-14T17:55:25;18.30;99.90
57088;DHT22;42965;52.846;6.614;2022-09-14T17:57:51;18.20;99.90
57088;DHT22;42965;52.846;6.614;2022-09-14T18:00:18;18.10;99.90
57088;DHT22;42965;52.846;6.614;2022-09-14T18:02:49;18.10;99.90
57088;DHT22;42965;52.846;6.614;2022-09-14T18:05:16;17.90;99.90